Terminal Aerodrome Forecast
Issued by NWS Wilmington, OH

Current Version | Previous Version | Text Only | Print | Product List | Glossary Off
Versions: 1 2 3 4 5 6 7 8 9 10 11 12 13 14 15 16 17 18 19 20 21 22 23 24 25 26 27

352
FTUS41 KILN 152330
TAFCVG
TAF
KCVG 152330Z 1600/1706 24014KT 4SM BR VCSH OVC007
     FM160400 26011KT P6SM SCT035
     FM160800 28010KT P6SM SCT015
      TEMPO 1609/1612 BKN015
     FM161200 29010KT P6SM SCT025
     FM162200 32008KT P6SM SCT030 BKN150=

USA.gov is the U.S. government's official web portal to all federal, state and local government web resources and services.